Terminal Aerodrome Forecast
Issued by NWS

Home | Current Version | Previous Version | Text Only | Print | Product List | Glossary On
Versions: 1 2 3 4 5 6 7 8 9 10 11 12 13 14 15 16 17 18 19 20 21 22 23 24 25 26 27 28 29 30
000
FTUS45 KCYS 102300
TAFRWL
TAF
KRWL 102320Z 1100/1124 22012KT P6SM VCSH SCT070 BKN100
     FM110500 24007KT P6SM BKN110
     FM111900 25012G18KT P6SM VCTS SCT080CB BKN150=

USA.gov is the U.S. government's official web portal to all federal, state and local government web resources and services.